sensor_id;sensor_type;location;lat;lon;timestamp;P1;durP1;ratioP1;P2;durP2;ratioP2
50555;SDS011;36508;52.512;13.450;2023-04-08T00:01:31;13.73;;;12.33;;
50555;SDS011;36508;52.512;13.450;2023-04-08T00:03:57;14.20;;;12.83;;
50555;SDS011;36508;52.512;13.450;2023-04-08T00:06:23;13.00;;;11.80;;
50555;SDS011;36508;52.512;13.450;2023-04-08T00:08:49;15.30;;;13.77;;
50555;SDS011;36508;52.512;13.450;2023-04-08T00:11:14;18.10;;;16.07;;
50555;SDS011;36508;52.512;13.450;2023-04-08T00:13:40;15.73;;;14.10;;
50555;SDS011;36508;52.512;13.450;2023-04-08T00:16:06;16.40;;;15.00;;
50555;SDS011;36508;52.512;13.450;2023-04-08T00:18:32;17.43;;;15.70;;
50555;SDS011;36508;52.512;13.450;2023-04-08T00:20:57;18.90;;;16.50;;
50555;SDS011;36508;52.512;13.450;2023-04-08T00:23:23;21.93;;;16.60;;
50555;SDS011;36508;52.512;13.450;2023-04-08T00:25:48;17.83;;;15.93;;
50555;SDS011;36508;52.512;13.450;2023-04-08T00:28:15;19.33;;;16.97;;
50555;SDS011;36508;52.512;13.450;2023-04-08T00:30:40;19.30;;;17.50;;
50555;SDS011;36508;52.512;13.450;2023-04-08T00:33:06;22.93;;;19.00;;
50555;SDS011;36508;52.512;13.450;2023-04-08T00:35:32;17.93;;;15.87;;
50555;SDS011;36508;52.512;13.450;2023-04-08T00:37:58;18.90;;;16.80;;
50555;SDS011;36508;52.512;13.450;2023-04-08T00:40:23;21.87;;;19.67;;
50555;SDS011;36508;52.512;13.450;2023-04-08T00:42:49;24.33;;;20.30;;
50555;SDS011;36508;52.512;13.450;2023-04-08T00:45:15;24.17;;;21.27;;
50555;SDS011;36508;52.512;13.450;2023-04-08T00:47:40;25.20;;;20.77;;
50555;SDS011;36508;52.512;13.450;2023-04-08T00:50:07;23.57;;;21.03;;
50555;SDS011;36508;52.512;13.450;2023-04-08T00:52:34;22.37;;;20.17;;
50555;SDS011;36508;52.512;13.450;2023-04-08T00:55:00;22.60;;;20.17;;
50555;SDS011;36508;52.512;13.450;2023-04-08T00:57:26;23.10;;;19.70;;
50555;SDS011;36508;52.512;13.450;2023-04-08T00:59:52;27.90;;;23.13;;
50555;SDS011;36508;52.512;13.450;2023-04-08T01:02:22;25.73;;;20.90;;
50555;SDS011;36508;52.512;13.450;2023-04-08T01:05:01;32.00;;;22.10;;
50555;SDS011;36508;52.512;13.450;2023-04-08T01:07:33;27.00;;;23.00;;
50555;SDS011;36508;52.512;13.450;2023-04-08T01:10:07;24.00;;;20.37;;
50555;SDS011;36508;52.512;13.450;2023-04-08T01:12:43;24.27;;;21.50;;
50555;SDS011;36508;52.512;13.450;2023-04-08T01:15:13;28.03;;;21.10;;
50555;SDS011;36508;52.512;13.450;2023-04-08T01:17:39;24.90;;;20.10;;
50555;SDS011;36508;52.512;13.450;2023-04-08T01:20:06;31.20;;;19.90;;
50555;SDS011;36508;52.512;13.450;2023-04-08T01:25:09;24.83;;;20.40;;
50555;SDS011;36508;52.512;13.450;2023-04-08T01:27:45;27.63;;;23.70;;
50555;SDS011;36508;52.512;13.450;2023-04-08T01:30:13;27.07;;;24.13;;
50555;SDS011;36508;52.512;13.450;2023-04-08T01:32:42;31.77;;;24.13;;
50555;SDS011;36508;52.512;13.450;2023-04-08T01:35:08;28.43;;;22.00;;
50555;SDS011;36508;52.512;13.450;2023-04-08T01:37:35;30.90;;;25.50;;
50555;SDS011;36508;52.512;13.450;2023-04-08T01:40:02;31.13;;;21.50;;
50555;SDS011;36508;52.512;13.450;2023-04-08T01:42:29;31.37;;;22.63;;
50555;SDS011;36508;52.512;13.450;2023-04-08T01:44:57;24.67;;;20.83;;
50555;SDS011;36508;52.512;13.450;2023-04-08T01:47:25;31.40;;;23.83;;
50555;SDS011;36508;52.512;13.450;2023-04-08T01:49:53;28.87;;;24.60;;
50555;SDS011;36508;52.512;13.450;2023-04-08T01:52:20;31.17;;;22.50;;
50555;SDS011;36508;52.512;13.450;2023-04-08T01:54:47;31.20;;;23.70;;
50555;SDS011;36508;52.512;13.450;2023-04-08T01:57:27;28.37;;;23.70;;
50555;SDS011;36508;52.512;13.450;2023-04-08T01:59:59;26.80;;;23.37;;
50555;SDS011;36508;52.512;13.450;2023-04-08T02:02:28;33.43;;;24.37;;
50555;SDS011;36508;52.512;13.450;2023-04-08T02:04:56;32.33;;;22.97;;
50555;SDS011;36508;52.512;13.450;2023-04-08T02:07:22;29.03;;;22.27;;
50555;SDS011;36508;52.512;13.450;2023-04-08T02:09:48;29.47;;;24.10;;
50555;SDS011;36508;52.512;13.450;2023-04-08T02:12:14;29.40;;;25.80;;
50555;SDS011;36508;52.512;13.450;2023-04-08T02:14:40;32.90;;;24.07;;
50555;SDS011;36508;52.512;13.450;2023-04-08T02:20:02;28.20;;;22.00;;
50555;SDS011;36508;52.512;13.450;2023-04-08T02:25:07;33.80;;;26.10;;
50555;SDS011;36508;52.512;13.450;2023-04-08T02:27:39;32.60;;;26.73;;
50555;SDS011;36508;52.512;13.450;2023-04-08T02:30:06;37.50;;;24.47;;
50555;SDS011;36508;52.512;13.450;2023-04-08T02:32:35;25.87;;;22.00;;
50555;SDS011;36508;52.512;13.450;2023-04-08T02:35:02;39.80;;;26.50;;
50555;SDS011;36508;52.512;13.450;2023-04-08T02:37:29;29.73;;;22.90;;
50555;SDS011;36508;52.512;13.450;2023-04-08T02:39:56;32.90;;;24.20;;
50555;SDS011;36508;52.512;13.450;2023-04-08T02:42:21;34.67;;;25.90;;
50555;SDS011;36508;52.512;13.450;2023-04-08T02:44:47;29.00;;;21.67;;
50555;SDS011;36508;52.512;13.450;2023-04-08T02:47:13;34.20;;;24.70;;
50555;SDS011;36508;52.512;13.450;2023-04-08T02:49:38;29.03;;;24.70;;
50555;SDS011;36508;52.512;13.450;2023-04-08T02:52:04;25.87;;;21.37;;
50555;SDS011;36508;52.512;13.450;2023-04-08T02:54:30;32.83;;;22.47;;
50555;SDS011;36508;52.512;13.450;2023-04-08T02:56:56;33.07;;;26.93;;
50555;SDS011;36508;52.512;13.450;2023-04-08T02:59:21;28.63;;;24.07;;
50555;SDS011;36508;52.512;13.450;2023-04-08T03:01:47;41.30;;;24.73;;
50555;SDS011;36508;52.512;13.450;2023-04-08T03:04:13;33.27;;;25.10;;
50555;SDS011;36508;52.512;13.450;2023-04-08T03:06:38;30.27;;;24.63;;
50555;SDS011;36508;52.512;13.450;2023-04-08T03:09:04;34.13;;;23.40;;
50555;SDS011;36508;52.512;13.450;2023-04-08T03:11:30;32.73;;;23.60;;
50555;SDS011;36508;52.512;13.450;2023-04-08T03:13:56;30.17;;;22.70;;
50555;SDS011;36508;52.512;13.450;2023-04-08T03:16:21;30.27;;;22.30;;
50555;SDS011;36508;52.512;13.450;2023-04-08T03:18:48;30.47;;;23.67;;
50555;SDS011;36508;52.512;13.450;2023-04-08T03:21:15;35.50;;;26.40;;
50555;SDS011;36508;52.512;13.450;2023-04-08T03:23:41;36.17;;;27.80;;
50555;SDS011;36508;52.512;13.450;2023-04-08T03:26:06;31.90;;;23.47;;
50555;SDS011;36508;52.512;13.450;2023-04-08T03:28:32;32.17;;;25.07;;
50555;SDS011;36508;52.512;13.450;2023-04-08T03:30:57;35.90;;;27.93;;
50555;SDS011;36508;52.512;13.450;2023-04-08T03:33:24;31.73;;;24.87;;
50555;SDS011;36508;52.512;13.450;2023-04-08T03:35:50;35.83;;;26.47;;
50555;SDS011;36508;52.512;13.450;2023-04-08T03:38:17;28.47;;;24.43;;
50555;SDS011;36508;52.512;13.450;2023-04-08T03:43:30;39.13;;;25.47;;
50555;SDS011;36508;52.512;13.450;2023-04-08T03:45:56;36.90;;;26.30;;
50555;SDS011;36508;52.512;13.450;2023-04-08T03:48:22;35.67;;;26.20;;
50555;SDS011;36508;52.512;13.450;2023-04-08T03:50:47;36.23;;;26.07;;
50555;SDS011;36508;52.512;13.450;2023-04-08T03:53:13;36.30;;;26.47;;
50555;SDS011;36508;52.512;13.450;2023-04-08T03:55:39;39.97;;;29.70;;
50555;SDS011;36508;52.512;13.450;2023-04-08T03:58:04;35.77;;;29.43;;
50555;SDS011;36508;52.512;13.450;2023-04-08T04:00:30;32.60;;;24.90;;
50555;SDS011;36508;52.512;13.450;2023-04-08T04:02:56;35.63;;;27.93;;
50555;SDS011;36508;52.512;13.450;2023-04-08T04:05:21;39.33;;;28.93;;
50555;SDS011;36508;52.512;13.450;2023-04-08T04:07:47;37.40;;;25.00;;
50555;SDS011;36508;52.512;13.450;2023-04-08T04:10:13;46.97;;;30.77;;
50555;SDS011;36508;52.512;13.450;2023-04-08T04:12:38;46.97;;;29.40;;
50555;SDS011;36508;52.512;13.450;2023-04-08T04:15:04;37.70;;;27.10;;
50555;SDS011;36508;52.512;13.450;2023-04-08T04:17:30;39.67;;;27.77;;
50555;SDS011;36508;52.512;13.450;2023-04-08T04:19:56;34.40;;;27.73;;
50555;SDS011;36508;52.512;13.450;2023-04-08T04:22:21;39.07;;;27.73;;
50555;SDS011;36508;52.512;13.450;2023-04-08T04:24:48;38.63;;;28.03;;
50555;SDS011;36508;52.512;13.450;2023-04-08T04:27:14;39.87;;;28.60;;
50555;SDS011;36508;52.512;13.450;2023-04-08T04:29:41;38.80;;;28.27;;
50555;SDS011;36508;52.512;13.450;2023-04-08T04:32:07;32.83;;;26.83;;
50555;SDS011;36508;52.512;13.450;2023-04-08T04:34:33;34.90;;;25.97;;
50555;SDS011;36508;52.512;13.450;2023-04-08T04:36:58;38.23;;;27.60;;
50555;SDS011;36508;52.512;13.450;2023-04-08T04:39:24;39.07;;;27.00;;
50555;SDS011;36508;52.512;13.450;2023-04-08T04:41:50;32.63;;;26.43;;
50555;SDS011;36508;52.512;13.450;2023-04-08T04:44:15;33.30;;;28.70;;
50555;SDS011;36508;52.512;13.450;2023-04-08T04:46:41;31.07;;;26.37;;
50555;SDS011;36508;52.512;13.450;2023-04-08T04:49:07;33.63;;;26.70;;
50555;SDS011;36508;52.512;13.450;2023-04-08T04:51:32;38.07;;;29.23;;
50555;SDS011;36508;52.512;13.450;2023-04-08T04:53:58;39.37;;;27.03;;
50555;SDS011;36508;52.512;13.450;2023-04-08T04:56:24;37.40;;;27.00;;
50555;SDS011;36508;52.512;13.450;2023-04-08T04:58:51;35.63;;;28.87;;
50555;SDS011;36508;52.512;13.450;2023-04-08T05:01:16;34.20;;;27.03;;
50555;SDS011;36508;52.512;13.450;2023-04-08T05:03:42;40.20;;;27.40;;
50555;SDS011;36508;52.512;13.450;2023-04-08T05:06:07;42.50;;;25.73;;
50555;SDS011;36508;52.512;13.450;2023-04-08T05:08:33;39.97;;;29.90;;
50555;SDS011;36508;52.512;13.450;2023-04-08T05:10:58;35.50;;;24.70;;
50555;SDS011;36508;52.512;13.450;2023-04-08T05:13:26;35.80;;;27.03;;
50555;SDS011;36508;52.512;13.450;2023-04-08T05:15:53;38.10;;;29.43;;
50555;SDS011;36508;52.512;13.450;2023-04-08T05:18:18;39.97;;;29.57;;
50555;SDS011;36508;52.512;13.450;2023-04-08T05:20:45;38.90;;;30.33;;
50555;SDS011;36508;52.512;13.450;2023-04-08T05:23:11;42.60;;;28.13;;
50555;SDS011;36508;52.512;13.450;2023-04-08T05:25:37;42.70;;;29.63;;
50555;SDS011;36508;52.512;13.450;2023-04-08T05:28:03;37.47;;;29.20;;
50555;SDS011;36508;52.512;13.450;2023-04-08T05:30:28;40.10;;;30.30;;
50555;SDS011;36508;52.512;13.450;2023-04-08T05:33:02;37.47;;;29.53;;
50555;SDS011;36508;52.512;13.450;2023-04-08T05:35:28;39.33;;;29.90;;
50555;SDS011;36508;52.512;13.450;2023-04-08T05:37:53;38.60;;;30.83;;
50555;SDS011;36508;52.512;13.450;2023-04-08T05:40:19;36.13;;;25.90;;
50555;SDS011;36508;52.512;13.450;2023-04-08T05:42:45;39.60;;;30.80;;
50555;SDS011;36508;52.512;13.450;2023-04-08T05:45:11;36.27;;;28.37;;
50555;SDS011;36508;52.512;13.450;2023-04-08T05:47:36;39.93;;;30.27;;
50555;SDS011;36508;52.512;13.450;2023-04-08T05:50:02;35.87;;;28.67;;
50555;SDS011;36508;52.512;13.450;2023-04-08T05:52:28;36.50;;;29.10;;
50555;SDS011;36508;52.512;13.450;2023-04-08T05:54:53;37.53;;;29.53;;
50555;SDS011;36508;52.512;13.450;2023-04-08T05:57:19;34.37;;;29.00;;
50555;SDS011;36508;52.512;13.450;2023-04-08T05:59:44;39.03;;;29.63;;
50555;SDS011;36508;52.512;13.450;2023-04-08T06:02:10;47.87;;;28.13;;
50555;SDS011;36508;52.512;13.450;2023-04-08T06:04:36;40.00;;;30.87;;
50555;SDS011;36508;52.512;13.450;2023-04-08T06:07:01;40.47;;;31.97;;
50555;SDS011;36508;52.512;13.450;2023-04-08T06:09:28;37.97;;;28.17;;
50555;SDS011;36508;52.512;13.450;2023-04-08T06:11:54;42.37;;;29.97;;
50555;SDS011;36508;52.512;13.450;2023-04-08T06:14:24;36.63;;;30.30;;
50555;SDS011;36508;52.512;13.450;2023-04-08T06:16:50;42.33;;;32.70;;
50555;SDS011;36508;52.512;13.450;2023-04-08T06:19:17;41.33;;;29.00;;
50555;SDS011;36508;52.512;13.450;2023-04-08T06:21:42;35.83;;;29.27;;
50555;SDS011;36508;52.512;13.450;2023-04-08T06:24:08;44.83;;;31.27;;
50555;SDS011;36508;52.512;13.450;2023-04-08T06:26:33;45.87;;;30.97;;
50555;SDS011;36508;52.512;13.450;2023-04-08T06:28:59;37.60;;;27.80;;
50555;SDS011;36508;52.512;13.450;2023-04-08T06:31:25;40.10;;;29.53;;
50555;SDS011;36508;52.512;13.450;2023-04-08T06:33:51;42.63;;;28.10;;
50555;SDS011;36508;52.512;13.450;2023-04-08T06:36:17;37.00;;;29.37;;
50555;SDS011;36508;52.512;13.450;2023-04-08T06:38:42;39.27;;;29.73;;
50555;SDS011;36508;52.512;13.450;2023-04-08T06:41:08;39.27;;;28.10;;
50555;SDS011;36508;52.512;13.450;2023-04-08T06:43:34;41.73;;;28.90;;
50555;SDS011;36508;52.512;13.450;2023-04-08T06:46:01;40.70;;;27.77;;
50555;SDS011;36508;52.512;13.450;2023-04-08T06:48:27;40.00;;;30.60;;
50555;SDS011;36508;52.512;13.450;2023-04-08T06:50:57;38.43;;;30.00;;
50555;SDS011;36508;52.512;13.450;2023-04-08T06:53:24;35.27;;;27.40;;
50555;SDS011;36508;52.512;13.450;2023-04-08T06:55:51;39.10;;;31.50;;
50555;SDS011;36508;52.512;13.450;2023-04-08T06:58:17;42.90;;;30.87;;
50555;SDS011;36508;52.512;13.450;2023-04-08T07:00:43;40.63;;;29.97;;
50555;SDS011;36508;52.512;13.450;2023-04-08T07:03:08;44.17;;;31.07;;
50555;SDS011;36508;52.512;13.450;2023-04-08T07:05:38;46.27;;;31.17;;
50555;SDS011;36508;52.512;13.450;2023-04-08T07:08:06;40.83;;;31.47;;
50555;SDS011;36508;52.512;13.450;2023-04-08T07:10:33;42.43;;;32.53;;
50555;SDS011;36508;52.512;13.450;2023-04-08T07:12:59;45.43;;;33.20;;
50555;SDS011;36508;52.512;13.450;2023-04-08T07:15:25;36.73;;;29.40;;
50555;SDS011;36508;52.512;13.450;2023-04-08T07:17:50;38.90;;;28.83;;
50555;SDS011;36508;52.512;13.450;2023-04-08T07:20:16;37.97;;;31.30;;
50555;SDS011;36508;52.512;13.450;2023-04-08T07:22:42;40.73;;;30.03;;
50555;SDS011;36508;52.512;13.450;2023-04-08T07:25:07;37.03;;;29.37;;
50555;SDS011;36508;52.512;13.450;2023-04-08T07:27:33;42.50;;;32.47;;
50555;SDS011;36508;52.512;13.450;2023-04-08T07:29:59;37.90;;;28.90;;
50555;SDS011;36508;52.512;13.450;2023-04-08T07:32:25;43.87;;;32.67;;
50555;SDS011;36508;52.512;13.450;2023-04-08T07:34:51;42.60;;;30.10;;
50555;SDS011;36508;52.512;13.450;2023-04-08T07:37:17;39.40;;;30.63;;
50555;SDS011;36508;52.512;13.450;2023-04-08T07:39:43;39.73;;;28.07;;
50555;SDS011;36508;52.512;13.450;2023-04-08T07:42:08;42.07;;;30.70;;
50555;SDS011;36508;52.512;13.450;2023-04-08T07:44:34;38.37;;;29.00;;
50555;SDS011;36508;52.512;13.450;2023-04-08T07:47:00;31.17;;;26.37;;
50555;SDS011;36508;52.512;13.450;2023-04-08T07:49:25;39.13;;;28.53;;
50555;SDS011;36508;52.512;13.450;2023-04-08T07:51:51;38.17;;;28.30;;
50555;SDS011;36508;52.512;13.450;2023-04-08T07:54:17;35.03;;;27.27;;
50555;SDS011;36508;52.512;13.450;2023-04-08T07:56:43;31.73;;;27.53;;
50555;SDS011;36508;52.512;13.450;2023-04-08T07:59:09;34.57;;;27.80;;
50555;SDS011;36508;52.512;13.450;2023-04-08T08:01:35;35.53;;;28.67;;
50555;SDS011;36508;52.512;13.450;2023-04-08T08:04:02;30.63;;;25.17;;
50555;SDS011;36508;52.512;13.450;2023-04-08T08:06:28;37.27;;;29.03;;
50555;SDS011;36508;52.512;13.450;2023-04-08T08:08:56;34.47;;;28.27;;
50555;SDS011;36508;52.512;13.450;2023-04-08T08:11:22;37.27;;;29.83;;
50555;SDS011;36508;52.512;13.450;2023-04-08T08:13:48;36.57;;;28.47;;
50555;SDS011;36508;52.512;13.450;2023-04-08T08:16:13;35.17;;;28.97;;
50555;SDS011;36508;52.512;13.450;2023-04-08T08:18:39;37.13;;;26.30;;
50555;SDS011;36508;52.512;13.450;2023-04-08T08:21:05;41.00;;;29.67;;
50555;SDS011;36508;52.512;13.450;2023-04-08T08:23:31;35.87;;;27.57;;
50555;SDS011;36508;52.512;13.450;2023-04-08T08:28:28;31.87;;;27.80;;
50555;SDS011;36508;52.512;13.450;2023-04-08T08:30:54;36.40;;;28.13;;
50555;SDS011;36508;52.512;13.450;2023-04-08T08:33:20;37.83;;;28.97;;
50555;SDS011;36508;52.512;13.450;2023-04-08T08:35:46;30.03;;;25.03;;
50555;SDS011;36508;52.512;13.450;2023-04-08T08:38:11;38.57;;;27.47;;
50555;SDS011;36508;52.512;13.450;2023-04-08T08:40:38;35.53;;;26.70;;
50555;SDS011;36508;52.512;13.450;2023-04-08T08:43:04;33.33;;;25.23;;
50555;SDS011;36508;52.512;13.450;2023-04-08T08:45:29;30.47;;;25.00;;
50555;SDS011;36508;52.512;13.450;2023-04-08T08:47:55;28.10;;;23.50;;
50555;SDS011;36508;52.512;13.450;2023-04-08T08:50:21;30.93;;;25.27;;
50555;SDS011;36508;52.512;13.450;2023-04-08T08:52:50;33.70;;;27.60;;
50555;SDS011;36508;52.512;13.450;2023-04-08T08:55:19;34.87;;;27.63;;
50555;SDS011;36508;52.512;13.450;2023-04-08T08:57:48;38.53;;;27.67;;
50555;SDS011;36508;52.512;13.450;2023-04-08T09:00:15;30.17;;;25.13;;
50555;SDS011;36508;52.512;13.450;2023-04-08T09:02:41;32.13;;;25.17;;
50555;SDS011;36508;52.512;13.450;2023-04-08T09:05:08;31.57;;;27.70;;
50555;SDS011;36508;52.512;13.450;2023-04-08T09:07:37;30.47;;;26.90;;
50555;SDS011;36508;52.512;13.450;2023-04-08T09:10:06;34.43;;;28.80;;
50555;SDS011;36508;52.512;13.450;2023-04-08T09:12:32;30.70;;;24.93;;
50555;SDS011;36508;52.512;13.450;2023-04-08T09:15:07;34.10;;;27.60;;
50555;SDS011;36508;52.512;13.450;2023-04-08T09:17:35;35.77;;;27.40;;
50555;SDS011;36508;52.512;13.450;2023-04-08T09:22:55;32.87;;;26.37;;
50555;SDS011;36508;52.512;13.450;2023-04-08T09:25:22;35.97;;;26.70;;
50555;SDS011;36508;52.512;13.450;2023-04-08T09:27:49;31.37;;;27.93;;
50555;SDS011;36508;52.512;13.450;2023-04-08T09:30:16;30.20;;;26.70;;
50555;SDS011;36508;52.512;13.450;2023-04-08T09:32:46;31.27;;;24.40;;
50555;SDS011;36508;52.512;13.450;2023-04-08T09:35:12;35.80;;;29.90;;
50555;SDS011;36508;52.512;13.450;2023-04-08T09:37:41;33.40;;;25.80;;
50555;SDS011;36508;52.512;13.450;2023-04-08T09:40:07;31.80;;;28.13;;
50555;SDS011;36508;52.512;13.450;2023-04-08T09:42:33;31.07;;;27.70;;
50555;SDS011;36508;52.512;13.450;2023-04-08T09:45:03;33.57;;;27.10;;
50555;SDS011;36508;52.512;13.450;2023-04-08T09:47:30;30.50;;;26.87;;
50555;SDS011;36508;52.512;13.450;2023-04-08T09:50:06;34.13;;;24.60;;
50555;SDS011;36508;52.512;13.450;2023-04-08T09:52:36;32.50;;;25.33;;
50555;SDS011;36508;52.512;13.450;2023-04-08T09:55:08;33.30;;;26.13;;
50555;SDS011;36508;52.512;13.450;2023-04-08T10:00:09;30.13;;;23.60;;
50555;SDS011;36508;52.512;13.450;2023-04-08T10:02:40;26.07;;;23.30;;
50555;SDS011;36508;52.512;13.450;2023-04-08T10:05:27;29.80;;;26.70;;
50555;SDS011;36508;52.512;13.450;2023-04-08T10:07:55;31.60;;;25.07;;
50555;SDS011;36508;52.512;13.450;2023-04-08T10:10:21;27.83;;;24.83;;
50555;SDS011;36508;52.512;13.450;2023-04-08T10:12:47;31.90;;;26.37;;
50555;SDS011;36508;52.512;13.450;2023-04-08T10:15:21;25.80;;;22.70;;
50555;SDS011;36508;52.512;13.450;2023-04-08T10:17:55;25.97;;;23.27;;
50555;SDS011;36508;52.512;13.450;2023-04-08T10:20:45;28.43;;;25.40;;
50555;SDS011;36508;52.512;13.450;2023-04-08T10:23:12;28.00;;;25.10;;
50555;SDS011;36508;52.512;13.450;2023-04-08T10:25:43;25.97;;;23.30;;
50555;SDS011;36508;52.512;13.450;2023-04-08T10:30:44;27.27;;;23.63;;
50555;SDS011;36508;52.512;13.450;2023-04-08T10:35:54;28.20;;;24.27;;
50555;SDS011;36508;52.512;13.450;2023-04-08T10:38:34;26.90;;;24.17;;
50555;SDS011;36508;52.512;13.450;2023-04-08T10:40:59;25.47;;;22.40;;
50555;SDS011;36508;52.512;13.450;2023-04-08T10:43:27;23.57;;;21.17;;
50555;SDS011;36508;52.512;13.450;2023-04-08T10:45:57;25.17;;;22.50;;
50555;SDS011;36508;52.512;13.450;2023-04-08T10:48:23;24.17;;;21.67;;
50555;SDS011;36508;52.512;13.450;2023-04-08T10:50:53;26.50;;;21.63;;
50555;SDS011;36508;52.512;13.450;2023-04-08T10:53:24;26.57;;;23.87;;
50555;SDS011;36508;52.512;13.450;2023-04-08T10:56:09;23.40;;;20.90;;
50555;SDS011;36508;52.512;13.450;2023-04-08T10:58:46;25.70;;;22.07;;
50555;SDS011;36508;52.512;13.450;2023-04-08T11:01:13;24.90;;;22.30;;
50555;SDS011;36508;52.512;13.450;2023-04-08T11:03:38;22.03;;;19.87;;
50555;SDS011;36508;52.512;13.450;2023-04-08T11:06:05;23.17;;;20.80;;
50555;SDS011;36508;52.512;13.450;2023-04-08T11:08:32;25.30;;;22.70;;
50555;SDS011;36508;52.512;13.450;2023-04-08T11:10:58;22.57;;;20.30;;
50555;SDS011;36508;52.512;13.450;2023-04-08T11:13:29;22.87;;;20.47;;
50555;SDS011;36508;52.512;13.450;2023-04-08T11:15:55;24.10;;;21.47;;
50555;SDS011;36508;52.512;13.450;2023-04-08T11:18:23;21.77;;;19.67;;
50555;SDS011;36508;52.512;13.450;2023-04-08T11:20:50;23.17;;;20.70;;
50555;SDS011;36508;52.512;13.450;2023-04-08T11:23:16;25.87;;;23.13;;
50555;SDS011;36508;52.512;13.450;2023-04-08T11:25:42;22.07;;;19.80;;
50555;SDS011;36508;52.512;13.450;2023-04-08T11:28:10;24.70;;;22.30;;
50555;SDS011;36508;52.512;13.450;2023-04-08T11:30:37;19.90;;;18.10;;
50555;SDS011;36508;52.512;13.450;2023-04-08T11:33:04;33.30;;;29.20;;
50555;SDS011;36508;52.512;13.450;2023-04-08T11:35:31;27.57;;;24.77;;
50555;SDS011;36508;52.512;13.450;2023-04-08T11:37:57;24.93;;;22.53;;
50555;SDS011;36508;52.512;13.450;2023-04-08T11:40:23;21.20;;;19.13;;
50555;SDS011;36508;52.512;13.450;2023-04-08T11:42:50;22.60;;;20.10;;
50555;SDS011;36508;52.512;13.450;2023-04-08T11:45:17;20.93;;;18.87;;
50555;SDS011;36508;52.512;13.450;2023-04-08T11:47:45;23.90;;;21.60;;
50555;SDS011;36508;52.512;13.450;2023-04-08T11:50:11;21.97;;;19.97;;
50555;SDS011;36508;52.512;13.450;2023-04-08T11:55:29;17.70;;;16.20;;
50555;SDS011;36508;52.512;13.450;2023-04-08T11:57:56;20.87;;;18.87;;
50555;SDS011;36508;52.512;13.450;2023-04-08T12:00:26;20.20;;;18.10;;
50555;SDS011;36508;52.512;13.450;2023-04-08T12:02:52;17.80;;;16.00;;
50555;SDS011;36508;52.512;13.450;2023-04-08T12:05:17;20.33;;;18.30;;
50555;SDS011;36508;52.512;13.450;2023-04-08T12:07:43;19.23;;;17.47;;
50555;SDS011;36508;52.512;13.450;2023-04-08T12:10:10;18.77;;;16.97;;
50555;SDS011;36508;52.512;13.450;2023-04-08T12:12:36;17.93;;;16.33;;
50555;SDS011;36508;52.512;13.450;2023-04-08T12:15:02;19.37;;;17.37;;
50555;SDS011;36508;52.512;13.450;2023-04-08T12:17:28;19.87;;;18.23;;
50555;SDS011;36508;52.512;13.450;2023-04-08T12:19:54;19.27;;;17.33;;
50555;SDS011;36508;52.512;13.450;2023-04-08T12:22:20;17.73;;;16.07;;
50555;SDS011;36508;52.512;13.450;2023-04-08T12:24:46;16.53;;;15.23;;
50555;SDS011;36508;52.512;13.450;2023-04-08T12:27:11;18.07;;;15.30;;
50555;SDS011;36508;52.512;13.450;2023-04-08T12:29:37;17.37;;;15.97;;
50555;SDS011;36508;52.512;13.450;2023-04-08T12:32:03;16.23;;;15.00;;
50555;SDS011;36508;52.512;13.450;2023-04-08T12:34:29;17.77;;;16.03;;
50555;SDS011;36508;52.512;13.450;2023-04-08T12:36:55;18.23;;;16.63;;
50555;SDS011;36508;52.512;13.450;2023-04-08T12:39:21;17.03;;;15.53;;
50555;SDS011;36508;52.512;13.450;2023-04-08T12:41:47;16.00;;;14.57;;
50555;SDS011;36508;52.512;13.450;2023-04-08T12:44:12;14.07;;;13.00;;
50555;SDS011;36508;52.512;13.450;2023-04-08T12:46:38;13.30;;;12.00;;
50555;SDS011;36508;52.512;13.450;2023-04-08T12:49:03;15.23;;;14.03;;
50555;SDS011;36508;52.512;13.450;2023-04-08T12:51:29;11.20;;;9.97;;
50555;SDS011;36508;52.512;13.450;2023-04-08T12:53:55;13.03;;;12.03;;
50555;SDS011;36508;52.512;13.450;2023-04-08T12:56:20;12.57;;;11.57;;
50555;SDS011;36508;52.512;13.450;2023-04-08T12:58:46;11.30;;;10.30;;
50555;SDS011;36508;52.512;13.450;2023-04-08T13:01:12;13.03;;;12.03;;
50555;SDS011;36508;52.512;13.450;2023-04-08T13:03:38;13.50;;;12.50;;
50555;SDS011;36508;52.512;13.450;2023-04-08T13:06:03;11.03;;;10.33;;
50555;SDS011;36508;52.512;13.450;2023-04-08T13:08:29;12.93;;;12.03;;
50555;SDS011;36508;52.512;13.450;2023-04-08T13:10:55;13.47;;;12.40;;
50555;SDS011;36508;52.512;13.450;2023-04-08T13:13:20;14.20;;;13.10;;
50555;SDS011;36508;52.512;13.450;2023-04-08T13:15:46;14.80;;;13.70;;
50555;SDS011;36508;52.512;13.450;2023-04-08T13:18:12;14.37;;;13.03;;
50555;SDS011;36508;52.512;13.450;2023-04-08T13:20:38;13.17;;;12.10;;
50555;SDS011;36508;52.512;13.450;2023-04-08T13:23:03;13.47;;;12.47;;
50555;SDS011;36508;52.512;13.450;2023-04-08T13:25:29;15.00;;;13.90;;
50555;SDS011;36508;52.512;13.450;2023-04-08T13:27:55;14.33;;;13.23;;
50555;SDS011;36508;52.512;13.450;2023-04-08T13:30:21;13.50;;;12.50;;
50555;SDS011;36508;52.512;13.450;2023-04-08T13:32:46;12.73;;;11.53;;
50555;SDS011;36508;52.512;13.450;2023-04-08T13:35:12;13.37;;;12.47;;
50555;SDS011;36508;52.512;13.450;2023-04-08T13:37:38;13.70;;;12.60;;
50555;SDS011;36508;52.512;13.450;2023-04-08T13:40:04;11.67;;;10.90;;
50555;SDS011;36508;52.512;13.450;2023-04-08T13:42:30;15.63;;;14.03;;
50555;SDS011;36508;52.512;13.450;2023-04-08T13:44:56;12.20;;;11.40;;
50555;SDS011;36508;52.512;13.450;2023-04-08T13:47:22;11.87;;;11.07;;
50555;SDS011;36508;52.512;13.450;2023-04-08T13:49:48;12.50;;;11.60;;
50555;SDS011;36508;52.512;13.450;2023-04-08T13:52:14;13.13;;;12.03;;
50555;SDS011;36508;52.512;13.450;2023-04-08T13:54:40;12.90;;;11.80;;
50555;SDS011;36508;52.512;13.450;2023-04-08T13:57:05;14.43;;;13.43;;
50555;SDS011;36508;52.512;13.450;2023-04-08T13:59:31;13.50;;;12.60;;
50555;SDS011;36508;52.512;13.450;2023-04-08T14:01:57;13.67;;;12.73;;
50555;SDS011;36508;52.512;13.450;2023-04-08T14:04:23;13.90;;;12.80;;
50555;SDS011;36508;52.512;13.450;2023-04-08T14:06:48;15.40;;;14.40;;
50555;SDS011;36508;52.512;13.450;2023-04-08T14:09:21;14.60;;;13.40;;
50555;SDS011;36508;52.512;13.450;2023-04-08T14:11:47;12.73;;;11.83;;
50555;SDS011;36508;52.512;13.450;2023-04-08T14:14:12;14.23;;;13.20;;
50555;SDS011;36508;52.512;13.450;2023-04-08T14:16:38;13.60;;;12.70;;
50555;SDS011;36508;52.512;13.450;2023-04-08T14:19:04;13.00;;;11.90;;
50555;SDS011;36508;52.512;13.450;2023-04-08T14:21:30;15.77;;;14.27;;
50555;SDS011;36508;52.512;13.450;2023-04-08T14:23:56;13.77;;;12.77;;
50555;SDS011;36508;52.512;13.450;2023-04-08T14:26:21;12.67;;;11.77;;
50555;SDS011;36508;52.512;13.450;2023-04-08T14:28:48;13.00;;;12.10;;
50555;SDS011;36508;52.512;13.450;2023-04-08T14:31:13;14.47;;;13.40;;
50555;SDS011;36508;52.512;13.450;2023-04-08T14:33:39;12.40;;;11.33;;